sensor_id;sensor_type;location;lat;lon;timestamp;pressure;altitude;pressure_sealevel;temperature;humidity
80911;BME280;70359;51.420;7.032;2023-07-13T00:00:26;1000.14;;;20.4;45.3877
80911;BME280;70359;51.420;7.032;2023-07-13T00:02:51;1000.166;;;20.36;45.52441
80911;BME280;70359;51.420;7.032;2023-07-13T00:05:16;1000.157;;;20.33;45.38184
80911;BME280;70359;51.420;7.032;2023-07-13T00:07:41;1000.155;;;20.28;45.94629
80911;BME280;70359;51.420;7.032;2023-07-13T00:10:07;1000.153;;;20.24;45.68652
80911;BME280;70359;51.420;7.032;2023-07-13T00:12:32;1000.149;;;20.17;46.12109
80911;BME280;70359;51.420;7.032;2023-07-13T00:14:56;1000.141;;;20.14;46.12891
80911;BME280;70359;51.420;7.032;2023-07-13T00:17:21;1000.091;;;20.12;46.18457
80911;BME280;70359;51.420;7.032;2023-07-13T00:19:46;1000.122;;;20.08;46.11133
80911;BME280;70359;51.420;7.032;2023-07-13T00:22:11;1000.139;;;20.09;46.21582
80911;BME280;70359;51.420;7.032;2023-07-13T00:24:36;1000.117;;;20.03;45.94336
80911;BME280;70359;51.420;7.032;2023-07-13T00:27:01;1000.105;;;20;46.02246
80911;BME280;70359;51.420;7.032;2023-07-13T00:29:26;1000.108;;;19.97;46.51758
80911;BME280;70359;51.420;7.032;2023-07-13T00:31:51;1000.111;;;19.94;46.21289
80911;BME280;70359;51.420;7.032;2023-07-13T00:34:16;1000.133;;;19.92;46.24512
80911;BME280;70359;51.420;7.032;2023-07-13T00:36:41;1000.166;;;19.87;46.39258
80911;BME280;70359;51.420;7.032;2023-07-13T00:39:06;1000.146;;;19.84;46.24902
80911;BME280;70359;51.420;7.032;2023-07-13T00:41:31;1000.145;;;19.84;46.31738
80911;BME280;70359;51.420;7.032;2023-07-13T00:43:56;1000.138;;;19.81;46.53516
80911;BME280;70359;51.420;7.032;2023-07-13T00:46:23;1000.127;;;19.81;46.4668
80911;BME280;70359;51.420;7.032;2023-07-13T00:48:47;1000.095;;;19.75;46.54102
80911;BME280;70359;51.420;7.032;2023-07-13T00:51:11;1000.112;;;19.75;46.04297
80911;BME280;70359;51.420;7.032;2023-07-13T00:53:36;1000.117;;;19.73;46.50488
80911;BME280;70359;51.420;7.032;2023-07-13T00:56:01;1000.119;;;19.72;46.41113
80911;BME280;70359;51.420;7.032;2023-07-13T00:58:26;1000.124;;;19.7;46.22266
80911;BME280;70359;51.420;7.032;2023-07-13T01:00:51;1000.109;;;19.67;46.6377
80911;BME280;70359;51.420;7.032;2023-07-13T01:03:16;1000.085;;;19.66;46.54395
80911;BME280;70359;51.420;7.032;2023-07-13T01:05:41;1000.118;;;19.65;46.89063
80911;BME280;70359;51.420;7.032;2023-07-13T01:08:06;1000.131;;;19.65;46.65918
80911;BME280;70359;51.420;7.032;2023-07-13T01:10:31;1000.107;;;19.63;46.71387
80911;BME280;70359;51.420;7.032;2023-07-13T01:12:56;1000.068;;;19.63;46.96875
80911;BME280;70359;51.420;7.032;2023-07-13T01:17:46;1000.093;;;19.59;46.75684
80911;BME280;70359;51.420;7.032;2023-07-13T01:20:12;1000.096;;;19.57;46.66211
80911;BME280;70359;51.420;7.032;2023-07-13T01:22:36;1000.065;;;19.56;47.13672
80911;BME280;70359;51.420;7.032;2023-07-13T01:25:01;1000.034;;;19.55;46.85645
80911;BME280;70359;51.420;7.032;2023-07-13T01:27:26;1000.013;;;19.56;46.99707
80911;BME280;70359;51.420;7.032;2023-07-13T01:29:52;999.993;;;19.52;47.17773
80911;BME280;70359;51.420;7.032;2023-07-13T01:32:18;1000.021;;;19.5;47.19922
80911;BME280;70359;51.420;7.032;2023-07-13T01:34:41;1000.06;;;19.46;46.83496
80911;BME280;70359;51.420;7.032;2023-07-13T01:37:06;1000.033;;;19.45;46.97461
80911;BME280;70359;51.420;7.032;2023-07-13T01:39:31;1000.02;;;19.45;47.44824
80911;BME280;70359;51.420;7.032;2023-07-13T01:41:56;1000.049;;;19.44;47.13574
80911;BME280;70359;51.420;7.032;2023-07-13T01:44:21;1000.067;;;19.41;47.74609
80911;BME280;70359;51.420;7.032;2023-07-13T01:46:46;1000.097;;;19.44;47.32031
80911;BME280;70359;51.420;7.032;2023-07-13T01:49:11;1000.086;;;19.4;47.3623
80911;BME280;70359;51.420;7.032;2023-07-13T01:51:36;1000.081;;;19.42;47.34082
80911;BME280;70359;51.420;7.032;2023-07-13T01:54:01;1000.133;;;19.38;47.48828
80911;BME280;70359;51.420;7.032;2023-07-13T01:56:26;1000.162;;;19.35;47.72754
80911;BME280;70359;51.420;7.032;2023-07-13T01:58:51;1000.232;;;19.32;47.35449
80911;BME280;70359;51.420;7.032;2023-07-13T02:01:16;1000.207;;;19.32;47.70117
80911;BME280;70359;51.420;7.032;2023-07-13T02:03:41;1000.22;;;19.29;47.73242
80911;BME280;70359;51.420;7.032;2023-07-13T02:06:06;1000.232;;;19.28;47.83691
80911;BME280;70359;51.420;7.032;2023-07-13T02:08:31;1000.233;;;19.26;47.40527
80911;BME280;70359;51.420;7.032;2023-07-13T02:10:56;1000.253;;;19.25;47.7627
80911;BME280;70359;51.420;7.032;2023-07-13T02:13:21;1000.211;;;19.23;48.00488
80911;BME280;70359;51.420;7.032;2023-07-13T02:15:46;1000.261;;;19.22;47.92188
80911;BME280;70359;51.420;7.032;2023-07-13T02:18:11;1000.253;;;19.21;47.88574
80911;BME280;70359;51.420;7.032;2023-07-13T02:20:36;1000.227;;;19.17;48.04395
80911;BME280;70359;51.420;7.032;2023-07-13T02:23:01;1000.24;;;19.18;48.0918
80911;BME280;70359;51.420;7.032;2023-07-13T02:25:26;1000.238;;;19.16;48.35547
80911;BME280;70359;51.420;7.032;2023-07-13T02:27:51;1000.249;;;19.17;47.84766
80911;BME280;70359;51.420;7.032;2023-07-13T02:30:16;1000.231;;;19.14;48.06445
80911;BME280;70359;51.420;7.032;2023-07-13T02:32:41;1000.244;;;19.13;48.0752
80911;BME280;70359;51.420;7.032;2023-07-13T02:35:07;1000.243;;;19.1;48.19824
80911;BME280;70359;51.420;7.032;2023-07-13T02:37:31;1000.185;;;19.09;48.33691
80911;BME280;70359;51.420;7.032;2023-07-13T02:39:56;1000.208;;;19.08;48.33594
80911;BME280;70359;51.420;7.032;2023-07-13T02:42:21;1000.195;;;19.08;48.54492
80911;BME280;70359;51.420;7.032;2023-07-13T02:44:46;1000.22;;;19.03;48.59668
80911;BME280;70359;51.420;7.032;2023-07-13T02:47:11;1000.242;;;19.01;48.45508
80911;BME280;70359;51.420;7.032;2023-07-13T02:49:36;1000.206;;;18.97;48.56641
80911;BME280;70359;51.420;7.032;2023-07-13T02:52:02;1000.204;;;18.97;48.3584
80911;BME280;70359;51.420;7.032;2023-07-13T02:54:26;1000.203;;;18.92;48.38867
80911;BME280;70359;51.420;7.032;2023-07-13T02:56:51;1000.269;;;18.91;48.66504
80911;BME280;70359;51.420;7.032;2023-07-13T02:59:17;1000.25;;;18.89;48.43066
80911;BME280;70359;51.420;7.032;2023-07-13T03:01:41;1000.222;;;18.88;48.49902
80911;BME280;70359;51.420;7.032;2023-07-13T03:04:06;1000.269;;;18.86;48.69336
80911;BME280;70359;51.420;7.032;2023-07-13T03:06:32;1000.285;;;18.86;48.99414
80911;BME280;70359;51.420;7.032;2023-07-13T03:08:57;1000.316;;;18.82;48.87402
80911;BME280;70359;51.420;7.032;2023-07-13T03:11:21;1000.336;;;18.8;49
80911;BME280;70359;51.420;7.032;2023-07-13T03:13:46;1000.339;;;18.78;49.00879
80911;BME280;70359;51.420;7.032;2023-07-13T03:16:12;1000.361;;;18.77;49.04297
80911;BME280;70359;51.420;7.032;2023-07-13T03:18:37;1000.325;;;18.74;49.1543
80911;BME280;70359;51.420;7.032;2023-07-13T03:21:02;1000.273;;;18.72;49.30371
80911;BME280;70359;51.420;7.032;2023-07-13T03:23:27;1000.315;;;18.72;49.30273
80911;BME280;70359;51.420;7.032;2023-07-13T03:26:00;1000.343;;;18.71;49.62695
80911;BME280;70359;51.420;7.032;2023-07-13T03:28:16;1000.353;;;18.7;49.60156
80911;BME280;70359;51.420;7.032;2023-07-13T03:30:41;1000.393;;;18.68;49.70313
80911;BME280;70359;51.420;7.032;2023-07-13T03:33:07;1000.382;;;18.69;49.32324
80911;BME280;70359;51.420;7.032;2023-07-13T03:35:31;1000.397;;;18.64;49.61816
80911;BME280;70359;51.420;7.032;2023-07-13T03:37:56;1000.377;;;18.65;49.75781
80911;BME280;70359;51.420;7.032;2023-07-13T03:40:22;1000.458;;;18.61;49.8584
80911;BME280;70359;51.420;7.032;2023-07-13T03:42:47;1000.5;;;18.61;49.78809
80911;BME280;70359;51.420;7.032;2023-07-13T03:45:12;1000.486;;;18.6;49.90234
80911;BME280;70359;51.420;7.032;2023-07-13T03:47:37;1000.48;;;18.6;50.53809
80911;BME280;70359;51.420;7.032;2023-07-13T03:50:02;1000.546;;;18.55;50.41797
80911;BME280;70359;51.420;7.032;2023-07-13T03:52:27;1000.557;;;18.58;50.27051
80911;BME280;70359;51.420;7.032;2023-07-13T03:54:52;1000.561;;;18.52;50.8877
80911;BME280;70359;51.420;7.032;2023-07-13T03:57:18;1000.55;;;18.54;50.56543
80911;BME280;70359;51.420;7.032;2023-07-13T03:59:42;1000.58;;;18.54;50.54297
80911;BME280;70359;51.420;7.032;2023-07-13T04:02:07;1000.59;;;18.58;50.39746
80911;BME280;70359;51.420;7.032;2023-07-13T04:04:32;1000.629;;;18.53;50.75977
80911;BME280;70359;51.420;7.032;2023-07-13T04:06:57;1000.67;;;18.57;50.59277
80911;BME280;70359;51.420;7.032;2023-07-13T04:09:22;1000.663;;;18.52;50.66797
80911;BME280;70359;51.420;7.032;2023-07-13T04:11:47;1000.69;;;18.55;50.78613
80911;BME280;70359;51.420;7.032;2023-07-13T04:14:12;1000.716;;;18.51;51.05957
80911;BME280;70359;51.420;7.032;2023-07-13T04:16:37;1000.767;;;18.58;50.90625
80911;BME280;70359;51.420;7.032;2023-07-13T04:19:02;1000.761;;;18.57;50.51172
80911;BME280;70359;51.420;7.032;2023-07-13T04:21:27;1000.725;;;18.57;50.66211
80911;BME280;70359;51.420;7.032;2023-07-13T04:23:52;1000.719;;;18.57;50.90527
80911;BME280;70359;51.420;7.032;2023-07-13T04:26:17;1000.751;;;18.58;51.0332
80911;BME280;70359;51.420;7.032;2023-07-13T04:28:42;1000.748;;;18.58;50.96289
80911;BME280;70359;51.420;7.032;2023-07-13T04:31:07;1000.76;;;18.62;50.80664
80911;BME280;70359;51.420;7.032;2023-07-13T04:33:32;1000.775;;;18.56;50.82324
80911;BME280;70359;51.420;7.032;2023-07-13T04:35:57;1000.82;;;18.57;51.02051
80911;BME280;70359;51.420;7.032;2023-07-13T04:38:22;1000.823;;;18.68;50.48828
80911;BME280;70359;51.420;7.032;2023-07-13T04:40:48;1000.85;;;18.58;51.02148
80911;BME280;70359;51.420;7.032;2023-07-13T04:43:12;1000.817;;;18.59;51.02246
80911;BME280;70359;51.420;7.032;2023-07-13T04:45:37;1000.845;;;18.63;50.76172
80911;BME280;70359;51.420;7.032;2023-07-13T04:48:02;1000.83;;;18.65;50.68262
80911;BME280;70359;51.420;7.032;2023-07-13T04:50:27;1000.835;;;18.63;50.98047
80911;BME280;70359;51.420;7.032;2023-07-13T04:52:52;1000.883;;;18.7;51
80911;BME280;70359;51.420;7.032;2023-07-13T04:55:17;1000.876;;;18.67;51.06641
80911;BME280;70359;51.420;7.032;2023-07-13T04:57:42;1000.877;;;18.72;51.25684
80911;BME280;70359;51.420;7.032;2023-07-13T05:00:07;1000.909;;;18.72;51.43066
80911;BME280;70359;51.420;7.032;2023-07-13T05:02:32;1000.927;;;18.76;51.67676
80911;BME280;70359;51.420;7.032;2023-07-13T05:04:57;1000.917;;;18.79;51.78516
80911;BME280;70359;51.420;7.032;2023-07-13T05:07:22;1000.951;;;18.89;51.18359
80911;BME280;70359;51.420;7.032;2023-07-13T05:09:47;1000.95;;;18.86;51.41211
80911;BME280;70359;51.420;7.032;2023-07-13T05:12:12;1000.952;;;18.95;51.53809
80911;BME280;70359;51.420;7.032;2023-07-13T05:14:37;1000.968;;;18.96;51.22656
80911;BME280;70359;51.420;7.032;2023-07-13T05:17:02;1000.95;;;19.03;50.95605
80911;BME280;70359;51.420;7.032;2023-07-13T05:19:27;1001.029;;;19.04;51.22461
80911;BME280;70359;51.420;7.032;2023-07-13T05:21:52;1001.069;;;19.06;51.26074
80911;BME280;70359;51.420;7.032;2023-07-13T05:24:27;1001.048;;;19.06;51.36523
80911;BME280;70359;51.420;7.032;2023-07-13T05:26:42;1001.103;;;19.16;51.30762
80911;BME280;70359;51.420;7.032;2023-07-13T05:29:07;1001.113;;;19.19;51.18262
80911;BME280;70359;51.420;7.032;2023-07-13T05:31:32;1001.148;;;19.22;51.07031
80911;BME280;70359;51.420;7.032;2023-07-13T05:33:57;1001.152;;;19.24;50.81934
80911;BME280;70359;51.420;7.032;2023-07-13T05:36:22;1001.16;;;19.28;50.82324
80911;BME280;70359;51.420;7.032;2023-07-13T05:38:47;1001.161;;;19.3;50.69922
80911;BME280;70359;51.420;7.032;2023-07-13T05:41:12;1001.166;;;19.26;51.07617
80911;BME280;70359;51.420;7.032;2023-07-13T05:43:37;1001.212;;;19.26;50.74023
80911;BME280;70359;51.420;7.032;2023-07-13T05:46:02;1001.272;;;19.32;50.82813
80911;BME280;70359;51.420;7.032;2023-07-13T05:48:27;1001.243;;;19.3;51.21973
80911;BME280;70359;51.420;7.032;2023-07-13T05:50:52;1001.321;;;19.28;51.11328
80911;BME280;70359;51.420;7.032;2023-07-13T05:53:17;1001.305;;;19.29;51.31055
80911;BME280;70359;51.420;7.032;2023-07-13T05:55:44;1001.3;;;19.26;50.87988
80911;BME280;70359;51.420;7.032;2023-07-13T05:58:07;1001.334;;;19.29;51.0332
80911;BME280;70359;51.420;7.032;2023-07-13T06:00:32;1001.377;;;19.27;51.6084
80911;BME280;70359;51.420;7.032;2023-07-13T06:02:57;1001.34;;;19.35;51.43262
80911;BME280;70359;51.420;7.032;2023-07-13T06:05:22;1001.405;;;19.32;51.36035
80911;BME280;70359;51.420;7.032;2023-07-13T06:07:47;1001.458;;;19.39;51.20703
80911;BME280;70359;51.420;7.032;2023-07-13T06:10:12;1001.452;;;19.33;51.43066
80911;BME280;70359;51.420;7.032;2023-07-13T06:12:37;1001.444;;;19.33;51.15332
80911;BME280;70359;51.420;7.032;2023-07-13T06:15:02;1001.476;;;19.28;51.8877
80911;BME280;70359;51.420;7.032;2023-07-13T06:17:27;1001.46;;;19.36;51.77051
80911;BME280;70359;51.420;7.032;2023-07-13T06:19:52;1001.505;;;19.4;51.61328
80911;BME280;70359;51.420;7.032;2023-07-13T06:22:17;1001.503;;;19.51;51.39453
80911;BME280;70359;51.420;7.032;2023-07-13T06:24:42;1001.514;;;19.52;51.77734
80911;BME280;70359;51.420;7.032;2023-07-13T06:27:07;1001.515;;;19.67;51.30859
80911;BME280;70359;51.420;7.032;2023-07-13T06:29:32;1001.553;;;19.68;51.77246
80911;BME280;70359;51.420;7.032;2023-07-13T06:31:57;1001.524;;;19.78;51.03125
80911;BME280;70359;51.420;7.032;2023-07-13T06:34:22;1001.543;;;19.82;51.37207
80911;BME280;70359;51.420;7.032;2023-07-13T06:36:47;1001.562;;;19.97;51.28418
80911;BME280;70359;51.420;7.032;2023-07-13T06:39:12;1001.544;;;20.03;50.7002
80911;BME280;70359;51.420;7.032;2023-07-13T06:41:37;1001.61;;;20.04;50.5957
80911;BME280;70359;51.420;7.032;2023-07-13T06:44:02;1001.581;;;20.13;50.6416
80911;BME280;70359;51.420;7.032;2023-07-13T06:46:28;1001.602;;;20.13;50.3291
80911;BME280;70359;51.420;7.032;2023-07-13T06:48:52;1001.584;;;20.23;50.5957
80911;BME280;70359;51.420;7.032;2023-07-13T06:51:17;1001.622;;;20.25;51.31738
80911;BME280;70359;51.420;7.032;2023-07-13T06:53:42;1001.62;;;20.41;50.5459
80911;BME280;70359;51.420;7.032;2023-07-13T06:56:07;1001.644;;;20.43;50.37305
80911;BME280;70359;51.420;7.032;2023-07-13T06:58:33;1001.644;;;20.5;50.14941
80911;BME280;70359;51.420;7.032;2023-07-13T07:00:57;1001.712;;;20.48;50.13574
80911;BME280;70359;51.420;7.032;2023-07-13T07:03:22;1001.698;;;20.51;50.05762
80911;BME280;70359;51.420;7.032;2023-07-13T07:05:47;1001.761;;;20.55;50.56152
80911;BME280;70359;51.420;7.032;2023-07-13T07:08:12;1001.786;;;20.66;50.10938
80911;BME280;70359;51.420;7.032;2023-07-13T07:10:37;1001.816;;;20.7;49.91699
80911;BME280;70359;51.420;7.032;2023-07-13T07:13:02;1001.816;;;20.81;49.56934
80911;BME280;70359;51.420;7.032;2023-07-13T07:15:27;1001.792;;;20.79;49.63574
80911;BME280;70359;51.420;7.032;2023-07-13T07:17:52;1001.833;;;20.84;49.71191
80911;BME280;70359;51.420;7.032;2023-07-13T07:20:17;1001.832;;;20.88;50.94727
80911;BME280;70359;51.420;7.032;2023-07-13T07:22:42;1001.842;;;20.98;49.32031
80911;BME280;70359;51.420;7.032;2023-07-13T07:25:07;1001.888;;;20.93;50.2793
80911;BME280;70359;51.420;7.032;2023-07-13T07:27:32;1001.919;;;20.91;49.66113
80911;BME280;70359;51.420;7.032;2023-07-13T07:29:57;1001.896;;;20.88;49.39063
80911;BME280;70359;51.420;7.032;2023-07-13T07:32:28;1001.861;;;21.01;49.20801
80911;BME280;70359;51.420;7.032;2023-07-13T07:34:47;1001.882;;;21.04;50.75684
80911;BME280;70359;51.420;7.032;2023-07-13T07:37:13;1001.812;;;21.1;50.55469
80911;BME280;70359;51.420;7.032;2023-07-13T07:39:37;1001.855;;;21.2;50.69238
80911;BME280;70359;51.420;7.032;2023-07-13T07:42:02;1001.861;;;21.32;50.06738
80911;BME280;70359;51.420;7.032;2023-07-13T07:44:27;1001.867;;;21.36;49.82813
80911;BME280;70359;51.420;7.032;2023-07-13T07:46:52;1001.867;;;21.45;49.69727
80911;BME280;70359;51.420;7.032;2023-07-13T07:49:17;1001.946;;;21.52;49.25195
80911;BME280;70359;51.420;7.032;2023-07-13T07:51:42;1001.943;;;21.58;49.25879
80911;BME280;70359;51.420;7.032;2023-07-13T07:54:07;1001.99;;;21.63;48.43652
80911;BME280;70359;51.420;7.032;2023-07-13T07:56:32;1001.968;;;21.58;48.88574
80911;BME280;70359;51.420;7.032;2023-07-13T07:58:57;1001.97;;;21.66;48.95313
80911;BME280;70359;51.420;7.032;2023-07-13T08:01:22;1001.964;;;21.56;48.16113
80911;BME280;70359;51.420;7.032;2023-07-13T08:03:47;1002.017;;;21.61;48.24902
80911;BME280;70359;51.420;7.032;2023-07-13T08:06:12;1002.013;;;21.6;48.52734
80911;BME280;70359;51.420;7.032;2023-07-13T08:08:38;1002.033;;;21.67;48.62793
80911;BME280;70359;51.420;7.032;2023-07-13T08:11:02;1001.964;;;21.57;48.25586
80911;BME280;70359;51.420;7.032;2023-07-13T08:13:27;1002.022;;;21.61;48.24902
80911;BME280;70359;51.420;7.032;2023-07-13T08:15:52;1001.966;;;21.67;48.7793
80911;BME280;70359;51.420;7.032;2023-07-13T08:18:17;1002.016;;;21.72;48.05078
80911;BME280;70359;51.420;7.032;2023-07-13T08:20:42;1002.069;;;21.72;48.33008
80911;BME280;70359;51.420;7.032;2023-07-13T08:23:07;1001.97;;;21.84;48.43652
80911;BME280;70359;51.420;7.032;2023-07-13T08:25:32;1001.995;;;21.81;47.82715
80911;BME280;70359;51.420;7.032;2023-07-13T08:27:57;1002.024;;;21.89;47.69629
80911;BME280;70359;51.420;7.032;2023-07-13T08:30:22;1001.989;;;21.82;48.69141
80911;BME280;70359;51.420;7.032;2023-07-13T08:32:47;1001.945;;;21.96;48.06445
80911;BME280;70359;51.420;7.032;2023-07-13T08:35:12;1001.988;;;21.89;48.83789
80911;BME280;70359;51.420;7.032;2023-07-13T08:37:37;1001.949;;;22;48.30273
80911;BME280;70359;51.420;7.032;2023-07-13T08:40:02;1001.964;;;21.93;48.11914
80911;BME280;70359;51.420;7.032;2023-07-13T08:42:31;1002.011;;;21.99;47.70703
80911;BME280;70359;51.420;7.032;2023-07-13T08:44:53;1002.016;;;21.94;47.70117
80911;BME280;70359;51.420;7.032;2023-07-13T08:47:17;1001.965;;;22.07;48.50684
80911;BME280;70359;51.420;7.032;2023-07-13T08:49:42;1001.918;;;22.05;47.03613
80911;BME280;70359;51.420;7.032;2023-07-13T08:52:08;1001.873;;;22.2;48.04297
80911;BME280;70359;51.420;7.032;2023-07-13T08:54:34;1001.89;;;22.16;48.16797
80911;BME280;70359;51.420;7.032;2023-07-13T08:56:57;1001.885;;;22.16;47.22461
80911;BME280;70359;51.420;7.032;2023-07-13T08:59:23;1001.911;;;22.23;47.21875
80911;BME280;70359;51.420;7.032;2023-07-13T09:01:51;1001.941;;;22.3;48.19434
80911;BME280;70359;51.420;7.032;2023-07-13T09:04:14;1001.897;;;22.29;47.41211
80911;BME280;70359;51.420;7.032;2023-07-13T09:06:39;1001.913;;;22.27;48.27344
80911;BME280;70359;51.420;7.032;2023-07-13T09:09:04;1001.917;;;22.26;47.38574
80911;BME280;70359;51.420;7.032;2023-07-13T09:11:32;1001.959;;;22.24;47.47656
80911;BME280;70359;51.420;7.032;2023-07-13T09:13:55;1001.873;;;22.29;47.31934
80911;BME280;70359;51.420;7.032;2023-07-13T09:16:17;1001.922;;;22.22;47.52148
80911;BME280;70359;51.420;7.032;2023-07-13T09:18:43;1001.93;;;22.22;47.66113
80911;BME280;70359;51.420;7.032;2023-07-13T09:21:08;1001.936;;;22.28;47.80762
80911;BME280;70359;51.420;7.032;2023-07-13T09:23:32;1001.909;;;22.3;47.61035
80911;BME280;70359;51.420;7.032;2023-07-13T09:25:58;1001.933;;;22.27;47.85352
80911;BME280;70359;51.420;7.032;2023-07-13T09:28:23;1001.924;;;22.28;47.66699
80911;BME280;70359;51.420;7.032;2023-07-13T09:30:49;1001.941;;;22.22;48.02246
80911;BME280;70359;51.420;7.032;2023-07-13T09:33:12;1001.908;;;22.21;48.06738
80911;BME280;70359;51.420;7.032;2023-07-13T09:35:37;1001.957;;;22.22;48.6875
80911;BME280;70359;51.420;7.032;2023-07-13T09:38:03;1001.946;;;22.3;48.42676
80911;BME280;70359;51.420;7.032;2023-07-13T09:40:28;1001.925;;;22.28;48.6709
80911;BME280;70359;51.420;7.032;2023-07-13T09:42:52;1001.967;;;22.32;47.8584
80911;BME280;70359;51.420;7.032;2023-07-13T09:45:17;1002.008;;;22.26;48.12109
80911;BME280;70359;51.420;7.032;2023-07-13T09:47:42;1002;;;22.35;47.48828
80911;BME280;70359;51.420;7.032;2023-07-13T09:50:10;1002.033;;;22.29;48.52051
80911;BME280;70359;51.420;7.032;2023-07-13T09:52:39;1002.01;;;22.35;48.28125
80911;BME280;70359;51.420;7.032;2023-07-13T09:54:57;1002;;;22.28;48.69434
80911;BME280;70359;51.420;7.032;2023-07-13T09:57:23;1002.015;;;22.3;48.18262
80911;BME280;70359;51.420;7.032;2023-07-13T09:59:49;1002.014;;;22.18;47.40039
80911;BME280;70359;51.420;7.032;2023-07-13T10:04:37;1001.981;;;22.28;48.00488
80911;BME280;70359;51.420;7.032;2023-07-13T10:07:11;1001.991;;;22.23;48.09375
80911;BME280;70359;51.420;7.032;2023-07-13T10:09:27;1002.083;;;22.14;48.20117
80911;BME280;70359;51.420;7.032;2023-07-13T10:11:52;1002.097;;;22.17;47.7959
80911;BME280;70359;51.420;7.032;2023-07-13T10:14:20;1002.149;;;22.23;48.58398
80911;BME280;70359;51.420;7.032;2023-07-13T10:16:43;1002.111;;;22.17;48.04004
80911;BME280;70359;51.420;7.032;2023-07-13T10:19:10;1002.086;;;22.22;48.33789
80911;BME280;70359;51.420;7.032;2023-07-13T10:21:34;1002.168;;;22.28;48.46094
80911;BME280;70359;51.420;7.032;2023-07-13T10:23:59;1002.142;;;22.25;47.81543
80911;BME280;70359;51.420;7.032;2023-07-13T10:26:23;1002.215;;;22.23;47.27734
80911;BME280;70359;51.420;7.032;2023-07-13T10:28:49;1002.147;;;22.29;47.24902
80911;BME280;70359;51.420;7.032;2023-07-13T10:31:13;1002.11;;;22.29;47.5293
80911;BME280;70359;51.420;7.032;2023-07-13T10:33:37;1002.146;;;22.42;47.28516
80911;BME280;70359;51.420;7.032;2023-07-13T10:36:03;1002.203;;;22.39;47.88965
80911;BME280;70359;51.420;7.032;2023-07-13T10:38:27;1002.177;;;22.41;47.19141
80911;BME280;70359;51.420;7.032;2023-07-13T10:40:54;1002.284;;;22.27;47.07227
80911;BME280;70359;51.420;7.032;2023-07-13T10:43:22;1002.313;;;22.28;47.52734
80911;BME280;70359;51.420;7.032;2023-07-13T10:45:43;1002.321;;;22.28;47.90137
80911;BME280;70359;51.420;7.032;2023-07-13T10:48:08;1002.33;;;22.34;48.12891
80911;BME280;70359;51.420;7.032;2023-07-13T10:50:33;1002.286;;;22.33;47.82422
80911;BME280;70359;51.420;7.032;2023-07-13T10:53:00;1002.267;;;22.42;47.64746
80911;BME280;70359;51.420;7.032;2023-07-13T10:55:36;1002.292;;;22.35;47.27832
80911;BME280;70359;51.420;7.032;2023-07-13T10:57:48;1002.321;;;22.44;48.02344
80911;BME280;70359;51.420;7.032;2023-07-13T11:00:17;1002.32;;;22.34;47.20801
80911;BME280;70359;51.420;7.032;2023-07-13T11:02:38;1002.3;;;22.39;47.66797
80911;BME280;70359;51.420;7.032;2023-07-13T11:05:13;1002.307;;;22.41;46.12988
80911;BME280;70359;51.420;7.032;2023-07-13T11:07:28;1002.339;;;22.44;46.35352
80911;BME280;70359;51.420;7.032;2023-07-13T11:09:53;1002.318;;;22.46;47.21973
80911;BME280;70359;51.420;7.032;2023-07-13T11:15:01;1002.311;;;22.49;47.12891
80911;BME280;70359;51.420;7.032;2023-07-13T11:22:10;1002.296;;;22.7;46.81348
80911;BME280;70359;51.420;7.032;2023-07-13T11:24:28;1002.331;;;22.64;46.12891
80911;BME280;70359;51.420;7.032;2023-07-13T11:26:52;1002.282;;;22.64;46.70215
80911;BME280;70359;51.420;7.032;2023-07-13T11:29:18;1002.209;;;22.74;46.47852
80911;BME280;70359;51.420;7.032;2023-07-13T11:31:38;1002.208;;;22.82;46.34668
80911;BME280;70359;51.420;7.032;2023-07-13T11:34:06;1002.19;;;22.89;46.19141
80911;BME280;70359;51.420;7.032;2023-07-13T11:36:29;1002.19;;;22.86;46.38574
80911;BME280;70359;51.420;7.032;2023-07-13T11:38:55;1002.176;;;22.95;45.0625
80911;BME280;70359;51.420;7.032;2023-07-13T11:41:18;1002.162;;;22.97;45.82422
80911;BME280;70359;51.420;7.032;2023-07-13T11:43:43;1002.112;;;22.94;45.46973
80911;BME280;70359;51.420;7.032;2023-07-13T11:46:18;1002.171;;;22.88;45.6748
80911;BME280;70359;51.420;7.032;2023-07-13T11:48:33;1002.12;;;23;44.93945
80911;BME280;70359;51.420;7.032;2023-07-13T11:50:59;1002.177;;;22.96;45.51953
80911;BME280;70359;51.420;7.032;2023-07-13T11:53:23;1002.115;;;22.99;44.87988
80911;BME280;70359;51.420;7.032;2023-07-13T11:55:48;1002.012;;;22.96;45.12207
80911;BME280;70359;51.420;7.032;2023-07-13T11:58:14;1002.029;;;23.02;45.33789
80911;BME280;70359;51.420;7.032;2023-07-13T12:00:38;1001.963;;;23.06;44.53613
80911;BME280;70359;51.420;7.032;2023-07-13T12:03:03;1001.969;;;23.11;44.78711
80911;BME280;70359;51.420;7.032;2023-07-13T12:05:28;1001.985;;;23.03;43.75
80911;BME280;70359;51.420;7.032;2023-07-13T12:07:53;1001.836;;;23.17;43.14258
80911;BME280;70359;51.420;7.032;2023-07-13T12:10:21;1001.898;;;23.16;44.07813
80911;BME280;70359;51.420;7.032;2023-07-13T12:12:43;1001.91;;;23.31;44.41992
80911;BME280;70359;51.420;7.032;2023-07-13T12:15:11;1001.962;;;23.2;43.79004
80911;BME280;70359;51.420;7.032;2023-07-13T12:17:33;1001.95;;;23.26;43.21094
80911;BME280;70359;51.420;7.032;2023-07-13T12:19:58;1001.943;;;23.24;43.43066
80911;BME280;70359;51.420;7.032;2023-07-13T12:22:23;1001.885;;;23.31;43.28418
80911;BME280;70359;51.420;7.032;2023-07-13T12:24:48;1001.99;;;23.3;43.1543
80911;BME280;70359;51.420;7.032;2023-07-13T12:27:18;1001.9;;;23.27;42.2041
80911;BME280;70359;51.420;7.032;2023-07-13T12:29:38;1001.938;;;23.22;42.57422
80911;BME280;70359;51.420;7.032;2023-07-13T12:32:03;1001.995;;;23.24;42.62402
80911;BME280;70359;51.420;7.032;2023-07-13T12:34:28;1001.954;;;23.3;42.7334